createdAt,value
2023-05-05T00:01:08.764Z,97040.50
2023-05-05T00:03:35.826Z,97039.97
2023-05-05T00:06:02.774Z,97045.78
2023-05-05T00:08:29.300Z,97035.16
2023-05-05T00:10:56.489Z,97037.03
2023-05-05T00:13:23.498Z,97038.88
2023-05-05T00:15:52.451Z,97037.81
2023-05-05T00:18:19.878Z,97035.47
2023-05-05T00:20:47.284Z,97037.81
2023-05-05T00:23:14.805Z,97039.94
2023-05-05T00:25:41.623Z,97030.91
2023-05-05T00:28:08.086Z,97043.63
2023-05-05T00:30:34.746Z,97038.88
2023-05-05T00:33:01.646Z,97044.69
2023-05-05T00:35:28.333Z,97045.22
2023-05-05T00:37:55.204Z,97040.44
2023-05-05T00:40:21.736Z,97039.38
2023-05-05T00:42:52.270Z,97043.13
2023-05-05T00:45:20.137Z,97046.81
2023-05-05T00:47:51.243Z,97040.97
2023-05-05T00:50:38.389Z,97039.66
2023-05-05T00:53:06.492Z,97035.66
2023-05-05T00:55:34.264Z,97031.41
2023-05-05T00:58:03.042Z,97033.00
2023-05-05T01:00:30.899Z,97040.97
2023-05-05T01:02:57.966Z,97042.56
2023-05-05T01:05:27.590Z,97042.06
2023-05-05T01:08:25.185Z,97043.38
2023-05-05T01:11:03.878Z,97037.81
2023-05-05T01:13:48.076Z,97038.06
2023-05-05T01:16:19.401Z,97042.03
2023-05-05T01:18:55.380Z,97037.75
2023-05-05T01:21:31.240Z,97038.28
2023-05-05T01:24:35.087Z,97037.72
2023-05-05T01:27:34.663Z,97032.94
2023-05-05T01:30:36.589Z,97045.66
2023-05-05T01:33:08.133Z,97046.22
2023-05-05T01:35:56.604Z,97046.22
2023-05-05T01:38:28.188Z,97041.44
2023-05-05T01:41:03.676Z,97036.66
2023-05-05T01:43:35.100Z,97040.13
2023-05-05T01:46:03.175Z,97039.81
2023-05-05T01:48:30.786Z,97039.31
2023-05-05T01:50:57.573Z,97041.44
2023-05-05T01:53:25.908Z,97037.19
2023-05-05T01:55:54.447Z,97038.78
2023-05-05T01:58:23.467Z,97040.91
2023-05-05T02:00:51.412Z,97038.78
2023-05-05T02:03:19.593Z,97037.19
2023-05-05T02:05:47.488Z,97047.78
2023-05-05T02:08:15.244Z,97054.44
2023-05-05T02:10:44.050Z,97041.97
2023-05-05T02:13:15.436Z,97047.78
2023-05-05T02:15:43.549Z,97043.56
2023-05-05T02:18:11.555Z,97053.66
2023-05-05T02:20:39.568Z,97050.22
2023-05-05T02:23:07.886Z,97048.91
2023-05-05T02:25:42.210Z,97053.44
2023-05-05T02:28:18.367Z,97057.91
2023-05-05T02:30:51.774Z,97056.53
2023-05-05T02:33:21.984Z,97056.25
2023-05-05T02:35:51.946Z,97058.59
2023-05-05T02:38:21.591Z,97055.06
2023-05-05T02:40:49.714Z,97066.22
2023-05-05T02:43:19.540Z,97064.63
2023-05-05T02:45:46.988Z,97071.00
2023-05-05T02:48:13.460Z,97064.63
2023-05-05T02:50:40.065Z,97064.66
2023-05-05T02:53:06.826Z,97060.97
2023-05-05T02:55:42.626Z,97060.25
2023-05-05T02:58:21.614Z,97065.28
2023-05-05T03:00:58.766Z,97058.34
2023-05-05T03:03:29.235Z,97066.44
2023-05-05T03:06:16.362Z,97057.56
2023-05-05T03:08:50.146Z,97070.28
2023-05-05T03:11:26.098Z,97065.81
2023-05-05T03:14:01.151Z,97060.75
2023-05-05T03:16:29.479Z,97061.31
2023-05-05T03:18:58.594Z,97061.88
2023-05-05T03:21:25.194Z,97062.44
2023-05-05T03:23:51.678Z,97063.00
2023-05-05T03:26:18.612Z,97060.91
2023-05-05T03:28:45.105Z,97061.44
2023-05-05T03:31:12.706Z,97064.13
2023-05-05T03:33:39.133Z,97064.09
2023-05-05T03:36:05.864Z,97063.00
2023-05-05T03:38:32.341Z,97061.91
2023-05-05T03:41:02.746Z,97066.13
2023-05-05T03:43:29.646Z,97067.25
2023-05-05T03:45:56.115Z,97070.91
2023-05-05T03:48:22.628Z,97071.41
2023-05-05T03:50:49.149Z,97066.09
2023-05-05T03:53:15.680Z,97076.69
2023-05-05T03:55:42.081Z,97072.41
2023-05-05T03:58:08.459Z,97074.03
2023-05-05T04:00:34.825Z,97069.25
2023-05-05T04:03:01.290Z,97075.09
2023-05-05T04:05:28.022Z,97068.78
2023-05-05T04:07:54.454Z,97067.16
2023-05-05T04:10:21.450Z,97065.09
2023-05-05T04:12:47.924Z,97074.69
2023-05-05T04:15:14.516Z,97074.25
2023-05-05T04:17:40.922Z,97073.81
2023-05-05T04:20:08.374Z,97078.59
2023-05-05T04:22:35.054Z,97085.53
2023-05-05T04:25:01.522Z,97087.38
2023-05-05T04:27:29.892Z,97082.28
2023-05-05T04:29:56.771Z,97088.16
2023-05-05T04:32:23.423Z,97081.25
2023-05-05T04:34:49.839Z,97091.34
2023-05-05T04:37:16.296Z,97089.22
2023-05-05T04:39:42.752Z,97090.03
2023-05-05T04:42:09.205Z,97092.44
2023-05-05T04:44:35.760Z,97095.69
2023-05-05T04:47:02.311Z,97099.94
2023-05-05T04:49:32.002Z,97100.97
2023-05-05T04:51:58.916Z,97103.59
2023-05-05T04:54:25.588Z,97097.75
2023-05-05T04:56:52.176Z,97102.59
2023-05-05T04:59:18.600Z,97109.78
2023-05-05T05:01:45.150Z,97101.59
2023-05-05T05:04:11.629Z,97101.59
2023-05-05T05:06:38.266Z,97102.69
2023-05-05T05:09:04.714Z,97104.78
2023-05-05T05:11:31.260Z,97114.34
2023-05-05T05:13:57.705Z,97117.00
2023-05-05T05:16:25.243Z,97123.13
2023-05-05T05:18:51.755Z,97126.84
2023-05-05T05:21:18.401Z,97128.66
2023-05-05T05:23:44.901Z,97127.06
2023-05-05T05:26:11.432Z,97126.53
2023-05-05T05:28:37.820Z,97127.88
2023-05-05T05:31:04.822Z,97126.03
2023-05-05T05:33:31.219Z,97123.47
2023-05-05T05:35:57.652Z,97137.84
2023-05-05T05:38:24.134Z,97136.75
2023-05-05T05:40:50.838Z,97134.28
2023-05-05T05:43:17.244Z,97136.59
2023-05-05T05:45:44.017Z,97125.59
2023-05-05T05:48:10.832Z,97130.06
2023-05-05T05:50:38.712Z,97131.09
2023-05-05T05:53:05.244Z,97125.44
2023-05-05T05:55:31.668Z,97130.34
2023-05-05T05:57:58.136Z,97137.59
2023-05-05T06:00:24.885Z,97149.25
2023-05-05T06:02:51.706Z,97142.81
2023-05-05T06:05:18.282Z,97150.63
2023-05-05T06:07:44.670Z,97153.84
2023-05-05T06:10:25.898Z,97150.78
2023-05-05T06:12:53.709Z,97153.97
2023-05-05T06:15:20.156Z,97158.09
2023-05-05T06:17:46.646Z,97164.97
2023-05-05T06:20:13.888Z,97162.97
2023-05-05T06:22:40.484Z,97165.06
2023-05-05T06:25:07.256Z,97154.75
2023-05-05T06:27:33.976Z,97163.97
2023-05-05T06:30:00.409Z,97153.94
2023-05-05T06:32:26.832Z,97155.94
2023-05-05T06:34:53.459Z,97153.38
2023-05-05T06:37:19.818Z,97161.38
2023-05-05T06:39:46.471Z,97149.81
2023-05-05T06:42:12.930Z,97156.75
2023-05-05T06:44:39.823Z,97165.69
2023-05-05T06:47:06.306Z,97159.09
2023-05-05T06:49:32.800Z,97162.69
2023-05-05T06:51:59.376Z,97161.88
2023-05-05T06:54:25.877Z,97158.84
2023-05-05T06:56:52.288Z,97158.97
2023-05-05T06:59:18.941Z,97157.00
2023-05-05T07:01:45.513Z,97158.75
2023-05-05T07:04:12.326Z,97164.34
2023-05-05T07:06:38.727Z,97164.34
2023-05-05T07:09:05.187Z,97157.75
2023-05-05T07:11:31.661Z,97173.28
2023-05-05T07:13:58.155Z,97177.53
2023-05-05T07:16:25.500Z,97175.38
2023-05-05T07:18:51.939Z,97174.44
2023-05-05T07:21:18.343Z,97177.25
2023-05-05T07:23:46.683Z,97177.66
2023-05-05T07:26:13.997Z,97177.31
2023-05-05T07:28:41.485Z,97185.72
2023-05-05T07:31:07.843Z,97180.72
2023-05-05T07:33:34.297Z,97183.94
2023-05-05T07:36:00.979Z,97191.25
2023-05-05T07:38:28.488Z,97188.66
2023-05-05T07:40:55.019Z,97191.13
2023-05-05T07:43:21.506Z,97188.84
2023-05-05T07:45:48.051Z,97190.19
2023-05-05T07:48:14.529Z,97177.97
2023-05-05T07:50:41.405Z,97183.84
2023-05-05T07:53:14.395Z,97192.38
2023-05-05T07:55:41.462Z,97193.50
2023-05-05T07:58:08.497Z,97196.34
2023-05-05T08:00:34.993Z,97191.91
2023-05-05T08:03:01.750Z,97193.53
2023-05-05T08:05:28.265Z,97199.16
2023-05-05T08:07:54.797Z,97193.28
2023-05-05T08:10:22.452Z,97190.25
2023-05-05T08:12:49.093Z,97189.28
2023-05-05T08:15:15.827Z,97197.19
2023-05-05T08:17:50.639Z,97190.66
2023-05-05T08:20:18.912Z,97198.63
2023-05-05T08:22:46.086Z,97203.28
2023-05-05T08:25:13.731Z,97199.91
2023-05-05T08:27:41.784Z,97199.38
2023-05-05T08:30:09.455Z,97199.91
2023-05-05T08:32:35.903Z,97200.13
2023-05-05T08:35:03.463Z,97189.84
2023-05-05T08:37:30.050Z,97184.34
2023-05-05T08:39:57.934Z,97175.47
2023-05-05T08:42:36.302Z,97172.53
2023-05-05T08:45:05.559Z,97175.19
2023-05-05T08:47:35.254Z,97181.56
2023-05-05T08:50:02.424Z,97186.78
2023-05-05T08:52:36.440Z,97181.22
2023-05-05T08:55:24.463Z,97187.75
2023-05-05T08:57:54.492Z,97183.78
2023-05-05T09:00:21.326Z,97189.44
2023-05-05T09:02:48.321Z,97189.81
2023-05-05T09:05:15.468Z,97182.63
2023-05-05T09:07:44.365Z,97184.31
2023-05-05T09:10:12.249Z,97191.03
2023-05-05T09:12:42.584Z,97184.50
2023-05-05T09:15:11.655Z,97180.72
2023-05-05T09:17:39.522Z,97174.22
2023-05-05T09:20:15.556Z,97171.72
2023-05-05T09:22:46.813Z,97169.91
2023-05-05T09:25:15.202Z,97175.84
2023-05-05T09:27:43.760Z,97169.28
2023-05-05T09:30:12.089Z,97174.69
2023-05-05T09:32:49.455Z,97174.38
2023-05-05T09:35:16.928Z,97184.66
2023-05-05T09:37:43.841Z,97172.75
2023-05-05T09:40:14.385Z,97173.19
2023-05-05T09:42:41.411Z,97174.50
2023-05-05T09:45:28.231Z,97165.63
2023-05-05T09:47:59.212Z,97169.13
2023-05-05T09:50:30.704Z,97160.31
2023-05-05T09:53:04.087Z,97166.00
2023-05-05T09:55:31.360Z,97152.53
2023-05-05T09:58:17.080Z,97153.53
2023-05-05T10:00:43.740Z,97153.28
2023-05-05T10:03:10.399Z,97154.09
2023-05-05T10:05:48.257Z,97150.44
2023-05-05T10:08:14.775Z,97154.03
2023-05-05T10:10:51.469Z,97155.44
2023-05-05T10:13:20.647Z,97149.53
2023-05-05T10:15:49.805Z,97150.00
2023-05-05T10:18:20.698Z,97145.09
2023-05-05T10:20:49.564Z,97148.91
2023-05-05T10:23:19.298Z,97149.22
2023-05-05T10:26:02.249Z,97142.38
2023-05-05T10:28:32.937Z,97143.16
2023-05-05T10:31:02.186Z,97143.94
2023-05-05T10:33:35.438Z,97138.22
2023-05-05T10:36:05.290Z,97138.09
2023-05-05T10:38:32.781Z,97133.06
2023-05-05T10:41:03.075Z,97127.66
2023-05-05T10:43:30.938Z,97131.75
2023-05-05T10:45:58.353Z,97124.81
2023-05-05T10:48:35.821Z,97117.66
2023-05-05T10:51:21.104Z,97114.19
2023-05-05T10:54:03.025Z,97108.63
2023-05-05T10:56:34.819Z,97106.78
2023-05-05T10:59:01.310Z,97096.91
2023-05-05T11:01:33.082Z,97090.16
2023-05-05T11:04:19.449Z,97092.06
2023-05-05T11:07:14.582Z,97085.72
2023-05-05T11:09:55.200Z,97083.00
2023-05-05T11:12:21.864Z,97079.66
2023-05-05T11:14:48.333Z,97080.75
2023-05-05T11:17:54.081Z,97070.31
2023-05-05T11:20:39.869Z,97067.97
2023-05-05T11:23:06.528Z,97066.66
2023-05-05T11:25:36.290Z,97066.97
2023-05-05T11:28:13.316Z,97072.03
2023-05-05T11:30:54.913Z,97071.41
2023-05-05T11:33:37.758Z,97067.72
2023-05-05T11:36:07.483Z,97071.69
2023-05-05T11:39:05.454Z,97063.88
2023-05-05T11:41:34.953Z,97071.28
2023-05-05T11:44:30.177Z,97065.22
2023-05-05T11:46:56.665Z,97061.03
2023-05-05T11:49:27.815Z,97061.28
2023-05-05T11:51:58.594Z,97060.00
2023-05-05T11:54:26.067Z,97051.41
2023-05-05T11:56:57.419Z,97048.91
2023-05-05T11:59:23.796Z,97048.38
2023-05-05T12:01:50.685Z,97051.63
2023-05-05T12:04:18.202Z,97043.50
2023-05-05T12:06:46.103Z,97044.03
2023-05-05T12:09:17.062Z,97046.97
2023-05-05T12:11:50.125Z,97038.25
2023-05-05T12:14:16.732Z,97034.50
2023-05-05T12:17:04.290Z,97034.69
2023-05-05T12:19:33.325Z,97024.69
2023-05-05T12:22:01.298Z,97022.94
2023-05-05T12:24:28.008Z,97023.66
2023-05-05T12:26:54.526Z,97022.78
2023-05-05T12:29:25.381Z,97018.06
2023-05-05T12:31:52.211Z,97017.00
2023-05-05T12:34:18.984Z,97017.78
2023-05-05T12:36:45.368Z,97014.72
2023-05-05T12:39:12.267Z,97008.66
2023-05-05T12:41:39.019Z,97010.19
2023-05-05T12:44:05.886Z,97000.38
2023-05-05T12:46:43.953Z,97005.28
2023-05-05T12:49:10.534Z,96997.53
2023-05-05T12:51:37.924Z,96988.22
2023-05-05T12:54:09.902Z,96985.72
2023-05-05T12:56:41.492Z,96988.50
2023-05-05T12:59:09.131Z,96994.03
2023-05-05T13:01:37.245Z,96978.03
2023-05-05T13:04:08.613Z,96976.84
2023-05-05T13:06:36.066Z,96972.34
2023-05-05T13:09:02.790Z,96974.31
2023-05-05T13:11:29.398Z,96964.19
2023-05-05T13:13:56.407Z,96954.03
2023-05-05T13:16:22.941Z,96950.03
2023-05-05T13:18:50.382Z,96950.28
2023-05-05T13:21:16.860Z,96947.94
2023-05-05T13:23:44.543Z,96951.47
2023-05-05T13:26:12.356Z,96949.63
2023-05-05T13:28:39.439Z,96939.66
2023-05-05T13:31:06.362Z,96941.25
2023-05-05T13:33:35.869Z,96933.47
2023-05-05T13:36:03.240Z,96926.38
2023-05-05T13:38:30.306Z,96925.94
2023-05-05T13:40:56.938Z,96919.88
2023-05-05T13:43:23.500Z,96913.91
2023-05-05T13:45:50.069Z,96904.25
2023-05-05T13:48:16.546Z,96911.09
2023-05-05T13:50:43.091Z,96899.16
2023-05-05T13:53:09.953Z,96889.25
2023-05-05T13:55:36.519Z,96881.97
2023-05-05T13:58:02.969Z,96874.28
2023-05-05T14:00:29.536Z,96876.81
2023-05-05T14:02:55.958Z,96876.69
2023-05-05T14:05:23.343Z,96874.91
2023-05-05T14:07:49.873Z,96872.03
2023-05-05T14:10:16.281Z,96876.75
2023-05-05T14:12:42.931Z,96883.47
2023-05-05T14:15:10.256Z,96873.38
2023-05-05T14:17:37.132Z,96872.00
2023-05-05T14:20:04.151Z,96866.50
2023-05-05T14:22:31.300Z,96872.94
2023-05-05T14:24:57.840Z,96869.34
2023-05-05T14:27:24.211Z,96868.66
2023-05-05T14:29:50.737Z,96872.91
2023-05-05T14:32:17.237Z,96861.53
2023-05-05T14:34:43.715Z,96860.03
2023-05-05T14:37:10.086Z,96845.06
2023-05-05T14:39:36.646Z,96840.47
2023-05-05T14:42:03.180Z,96847.84
2023-05-05T14:44:29.647Z,96845.06
2023-05-05T14:46:56.278Z,96842.31
2023-05-05T14:49:22.809Z,96844.38
2023-05-05T14:51:49.287Z,96834.91
2023-05-05T14:54:27.595Z,96832.28
2023-05-05T14:56:55.324Z,96840.06
2023-05-05T14:59:21.763Z,96840.63
2023-05-05T15:01:48.381Z,96836.09
2023-05-05T15:04:15.046Z,96824.75
2023-05-05T15:06:41.495Z,96822.81
2023-05-05T15:09:07.881Z,96828.25
2023-05-05T15:11:34.318Z,96828.56
2023-05-05T15:14:00.818Z,96832.84
2023-05-05T15:16:27.352Z,96824.94
2023-05-05T15:18:53.877Z,96831.44
2023-05-05T15:21:20.302Z,96836.81
2023-05-05T15:23:46.798Z,96822.28
2023-05-05T15:26:13.463Z,96827.78
2023-05-05T15:28:39.813Z,96825.75
2023-05-05T15:31:06.389Z,96824.63
2023-05-05T15:33:35.859Z,96831.41
2023-05-05T15:36:02.254Z,96832.47
2023-05-05T15:38:30.107Z,96843.53
2023-05-05T15:40:56.737Z,96851.38
2023-05-05T15:43:23.154Z,96861.91
2023-05-05T15:45:49.577Z,96864.63
2023-05-05T15:48:15.985Z,96864.19
2023-05-05T15:50:42.512Z,96868.13
2023-05-05T15:53:09.089Z,96875.41
2023-05-05T15:55:35.885Z,96887.00
2023-05-05T15:58:02.418Z,96897.97
2023-05-05T16:00:28.842Z,96917.16
2023-05-05T16:02:55.420Z,96931.38
2023-05-05T16:05:23.187Z,96944.94
2023-05-05T16:07:49.806Z,96967.34
2023-05-05T16:10:17.547Z,96950.38
2023-05-05T16:12:44.614Z,96966.84
2023-05-05T16:15:11.553Z,96982.56
2023-05-05T16:17:38.299Z,97010.19
2023-05-05T16:20:05.127Z,97018.28
2023-05-05T16:22:31.745Z,97039.72
2023-05-05T16:24:58.168Z,97032.41
2023-05-05T16:27:24.671Z,97037.47
2023-05-05T16:29:51.331Z,97018.53
2023-05-05T16:32:17.805Z,97010.81
2023-05-05T16:34:44.411Z,97011.88
2023-05-05T16:37:11.004Z,97015.34
2023-05-05T16:39:40.377Z,96994.66
2023-05-05T16:42:06.982Z,96992.50
2023-05-05T16:44:33.586Z,96981.88
2023-05-05T16:47:00.004Z,96971.22
2023-05-05T16:49:26.516Z,96956.81
2023-05-05T16:51:53.488Z,96957.75
2023-05-05T16:54:20.177Z,96958.00
2023-05-05T16:56:46.794Z,96972.66
2023-05-05T16:59:15.175Z,96978.94
2023-05-05T17:01:43.327Z,96988.38
2023-05-05T17:04:10.918Z,96991.03
2023-05-05T17:06:37.332Z,96999.56
2023-05-05T17:09:03.846Z,96998.09
2023-05-05T17:11:30.269Z,96998.09
2023-05-05T17:13:56.675Z,96991.19
2023-05-05T17:16:23.247Z,96983.56
2023-05-05T17:18:49.766Z,96981.94
2023-05-05T17:21:16.351Z,96988.81
2023-05-05T17:23:42.909Z,96980.63
2023-05-05T17:26:09.344Z,96987.16
2023-05-05T17:28:35.761Z,96987.00
2023-05-05T17:31:02.184Z,96987.53
2023-05-05T17:33:28.635Z,96987.06
2023-05-05T17:35:55.088Z,96978.31
2023-05-05T17:38:21.627Z,96984.59
2023-05-05T17:40:48.370Z,96995.56
2023-05-05T17:43:14.782Z,96980.28
2023-05-05T17:45:42.230Z,96978.72
2023-05-05T17:48:08.773Z,96967.50
2023-05-05T17:50:35.295Z,96958.44
2023-05-05T17:53:01.744Z,96964.31
2023-05-05T17:55:28.420Z,96964.31
2023-05-05T17:57:57.158Z,96961.59
2023-05-05T18:00:23.700Z,96969.09
2023-05-05T18:02:50.418Z,96983.56
2023-05-05T18:05:17.095Z,96985.47
2023-05-05T18:07:43.573Z,96979.84
2023-05-05T18:10:10.759Z,96976.41
2023-05-05T18:12:37.210Z,96972.41
2023-05-05T18:15:05.544Z,96974.09
2023-05-05T18:17:32.265Z,96972.00
2023-05-05T18:19:58.891Z,96970.44
2023-05-05T18:22:25.261Z,96970.44
2023-05-05T18:24:51.799Z,96981.09
2023-05-05T18:27:18.304Z,96972.56
2023-05-05T18:29:44.753Z,96976.78
2023-05-05T18:32:11.155Z,96970.41
2023-05-05T18:34:37.552Z,96979.00
2023-05-05T18:37:04.945Z,96979.59
2023-05-05T18:39:31.322Z,96989.75
2023-05-05T18:41:57.750Z,96985.53
2023-05-05T18:44:24.205Z,96984.22
2023-05-05T18:46:51.329Z,96991.94
2023-05-05T18:49:17.941Z,96993.56
2023-05-05T18:51:44.457Z,97001.03
2023-05-05T18:54:10.944Z,96992.53
2023-05-05T18:56:37.436Z,96997.84
2023-05-05T18:59:04.879Z,97000.53
2023-05-05T19:01:31.488Z,97005.88
2023-05-05T19:03:57.947Z,97021.31
2023-05-05T19:06:24.396Z,97029.31
2023-05-05T19:08:50.851Z,97039.94
2023-05-05T19:11:17.255Z,97044.22
2023-05-05T19:13:43.840Z,97054.06
2023-05-05T19:16:10.985Z,97047.94
2023-05-05T19:18:37.626Z,97045.28
2023-05-05T19:21:06.483Z,97049.00
2023-05-05T19:23:33.376Z,97056.47
2023-05-05T19:25:59.871Z,97055.94
2023-05-05T19:28:26.251Z,97062.31
2023-05-05T19:30:52.788Z,97059.13
2023-05-05T19:33:19.267Z,97058.59
2023-05-05T19:35:45.774Z,97066.03
2023-05-05T19:38:12.705Z,97071.88
2023-05-05T19:40:39.866Z,97064.16
2023-05-05T19:43:06.900Z,97069.19
2023-05-05T19:45:33.903Z,97070.28
2023-05-05T19:48:01.428Z,97077.69
2023-05-05T19:50:30.148Z,97085.94
2023-05-05T19:52:56.676Z,97092.06
2023-05-05T19:55:23.149Z,97098.41
2023-05-05T19:57:49.519Z,97100.50
2023-05-05T20:00:16.361Z,97100.25
2023-05-05T20:02:42.958Z,97098.38
2023-05-05T20:05:11.444Z,97099.22
2023-05-05T20:07:37.849Z,97101.63
2023-05-05T20:10:04.609Z,97106.66
2023-05-05T20:12:31.204Z,97104.25
2023-05-05T20:14:57.656Z,97103.50
2023-05-05T20:17:25.625Z,97104.81
2023-05-05T20:19:52.308Z,97109.59
2023-05-05T20:22:18.747Z,97111.22
2023-05-05T20:24:45.265Z,97105.38
2023-05-05T20:27:11.679Z,97099.53
2023-05-05T20:29:38.163Z,97097.91
2023-05-05T20:32:05.620Z,97105.38
2023-05-05T20:34:32.177Z,97104.34
2023-05-05T20:36:58.629Z,97107.50
2023-05-05T20:39:25.068Z,97108.06
2023-05-05T20:41:51.454Z,97111.50
2023-05-05T20:44:17.903Z,97103.25
2023-05-05T20:46:44.484Z,97115.50
2023-05-05T20:49:10.986Z,97107.78
2023-05-05T20:51:37.685Z,97117.06
2023-05-05T20:54:04.479Z,97107.22
2023-05-05T20:56:30.878Z,97114.94
2023-05-05T20:58:57.502Z,97109.13
2023-05-05T21:01:24.063Z,97112.84
2023-05-05T21:03:50.699Z,97100.06
2023-05-05T21:06:19.382Z,97109.63
2023-05-05T21:08:47.112Z,97105.91
2023-05-05T21:11:13.623Z,97105.91
2023-05-05T21:16:07.030Z,97108.03
2023-05-05T21:18:33.581Z,97101.09
2023-05-05T21:21:00.278Z,97106.72
2023-05-05T21:23:26.811Z,97109.38
2023-05-05T21:25:53.300Z,97102.19
2023-05-05T21:28:19.723Z,97102.47
2023-05-05T21:30:54.785Z,97099.53
2023-05-05T21:33:31.361Z,97104.31
2023-05-05T21:35:58.096Z,97104.56
2023-05-05T21:38:24.774Z,97105.94
2023-05-05T21:40:57.457Z,97103.75
2023-05-05T21:43:26.224Z,97109.06
2023-05-05T21:46:03.974Z,97104.84
2023-05-05T21:48:31.345Z,97105.34
2023-05-05T21:50:57.720Z,97104.84
2023-05-05T21:53:24.365Z,97102.69
2023-05-05T21:55:50.966Z,97101.63
2023-05-05T21:58:17.514Z,97094.47
2023-05-05T22:00:44.910Z,97091.28
2023-05-05T22:03:11.651Z,97100.59
2023-05-05T22:05:38.401Z,97096.84
2023-05-05T22:08:04.963Z,97095.28
2023-05-05T22:10:31.440Z,97094.75
2023-05-05T22:12:58.191Z,97097.41
2023-05-05T22:15:27.649Z,97091.03
2023-05-05T22:17:56.575Z,97087.03
2023-05-05T22:20:23.178Z,97085.72
2023-05-05T22:22:49.605Z,97080.94
2023-05-05T22:25:16.384Z,97076.66
2023-05-05T22:27:43.019Z,97087.84
2023-05-05T22:30:09.944Z,97095.03
2023-05-05T22:32:36.404Z,97084.66
2023-05-05T22:35:02.855Z,97088.38
2023-05-05T22:37:29.280Z,97082.50
2023-05-05T22:39:55.771Z,97089.69
2023-05-05T22:42:22.196Z,97088.91
2023-05-05T22:44:48.616Z,97097.41
2023-05-05T22:47:15.235Z,97084.91
2023-05-05T22:49:41.885Z,97082.50
2023-05-05T22:52:08.664Z,97076.13
2023-05-05T22:54:35.032Z,97072.94
2023-05-05T22:57:02.310Z,97078.25
2023-05-05T22:59:28.725Z,97074.28
2023-05-05T23:01:55.190Z,97076.94
2023-05-05T23:04:21.653Z,97077.72
2023-05-05T23:06:48.125Z,97081.19
2023-05-05T23:09:14.710Z,97082.50
2023-05-05T23:11:41.088Z,97080.63
2023-05-05T23:14:07.474Z,97079.59
2023-05-05T23:16:34.287Z,97083.31
2023-05-05T23:19:00.742Z,97084.13
2023-05-05T23:21:28.415Z,97075.09
2023-05-05T23:23:55.759Z,97076.66
2023-05-05T23:26:22.362Z,97080.69
2023-05-05T23:28:48.818Z,97080.41
2023-05-05T23:31:15.571Z,97083.59
2023-05-05T23:33:41.974Z,97084.91
2023-05-05T23:36:09.102Z,97087.31
2023-05-05T23:38:35.565Z,97079.34
2023-05-05T23:41:02.043Z,97079.34
2023-05-05T23:43:28.434Z,97082.25
2023-05-05T23:45:54.984Z,97081.75
2023-05-05T23:48:21.665Z,97073.78
2023-05-05T23:50:48.062Z,97073.47
2023-05-05T23:53:15.752Z,97077.72
2023-05-05T23:55:42.155Z,97071.63
2023-05-05T23:58:08.636Z,97061.25
